sensor_id;sensor_type;location;lat;lon;timestamp;P1;durP1;ratioP1;P2;durP2;ratioP2
74229;SDS011;62589;12.568;99.958;2022-12-18T00:02:10;15.27;;;6.82;;
74229;SDS011;62589;12.568;99.958;2022-12-18T00:04:37;10.57;;;5.72;;
74229;SDS011;62589;12.568;99.958;2022-12-18T00:07:03;12.70;;;6.15;;
74229;SDS011;62589;12.568;99.958;2022-12-18T00:09:29;14.52;;;5.95;;
74229;SDS011;62589;12.568;99.958;2022-12-18T00:11:56;12.57;;;5.78;;
74229;SDS011;62589;12.568;99.958;2022-12-18T00:14:22;14.38;;;6.45;;
74229;SDS011;62589;12.568;99.958;2022-12-18T00:16:48;15.88;;;6.35;;
74229;SDS011;62589;12.568;99.958;2022-12-18T00:19:15;11.93;;;6.05;;
74229;SDS011;62589;12.568;99.958;2022-12-18T00:21:42;11.90;;;6.22;;
74229;SDS011;62589;12.568;99.958;2022-12-18T00:24:09;14.25;;;5.80;;
74229;SDS011;62589;12.568;99.958;2022-12-18T00:26:37;14.57;;;6.80;;
74229;SDS011;62589;12.568;99.958;2022-12-18T00:29:07;13.60;;;6.30;;
74229;SDS011;62589;12.568;99.958;2022-12-18T00:31:39;16.13;;;6.47;;
74229;SDS011;62589;12.568;99.958;2022-12-18T00:34:06;12.18;;;6.32;;
74229;SDS011;62589;12.568;99.958;2022-12-18T00:36:35;14.23;;;6.45;;
74229;SDS011;62589;12.568;99.958;2022-12-18T00:39:03;15.20;;;6.22;;
74229;SDS011;62589;12.568;99.958;2022-12-18T00:41:31;14.88;;;7.10;;
74229;SDS011;62589;12.568;99.958;2022-12-18T00:44:10;14.73;;;7.05;;
74229;SDS011;62589;12.568;99.958;2022-12-18T00:46:38;12.02;;;6.63;;
74229;SDS011;62589;12.568;99.958;2022-12-18T00:49:05;14.77;;;7.13;;
74229;SDS011;62589;12.568;99.958;2022-12-18T00:51:32;14.38;;;7.15;;
74229;SDS011;62589;12.568;99.958;2022-12-18T00:53:58;14.63;;;7.40;;
74229;SDS011;62589;12.568;99.958;2022-12-18T00:56:25;13.18;;;6.85;;
74229;SDS011;62589;12.568;99.958;2022-12-18T00:58:51;13.98;;;6.63;;
74229;SDS011;62589;12.568;99.958;2022-12-18T01:01:18;15.45;;;7.15;;
74229;SDS011;62589;12.568;99.958;2022-12-18T01:03:45;13.98;;;6.38;;
74229;SDS011;62589;12.568;99.958;2022-12-18T01:06:12;14.35;;;6.45;;
74229;SDS011;62589;12.568;99.958;2022-12-18T01:08:40;10.57;;;6.22;;
74229;SDS011;62589;12.568;99.958;2022-12-18T01:11:07;12.85;;;6.57;;
74229;SDS011;62589;12.568;99.958;2022-12-18T01:13:37;15.15;;;6.53;;
74229;SDS011;62589;12.568;99.958;2022-12-18T01:16:04;13.45;;;6.13;;
74229;SDS011;62589;12.568;99.958;2022-12-18T01:18:31;11.38;;;6.85;;
74229;SDS011;62589;12.568;99.958;2022-12-18T01:20:58;12.02;;;6.75;;
74229;SDS011;62589;12.568;99.958;2022-12-18T01:23:24;13.93;;;7.07;;
74229;SDS011;62589;12.568;99.958;2022-12-18T01:25:52;13.05;;;6.78;;
74229;SDS011;62589;12.568;99.958;2022-12-18T01:28:18;12.45;;;6.90;;
74229;SDS011;62589;12.568;99.958;2022-12-18T01:30:45;11.75;;;7.28;;
74229;SDS011;62589;12.568;99.958;2022-12-18T01:33:11;13.60;;;6.85;;
74229;SDS011;62589;12.568;99.958;2022-12-18T01:35:41;16.65;;;7.45;;
74229;SDS011;62589;12.568;99.958;2022-12-18T01:38:08;18.00;;;6.88;;
74229;SDS011;62589;12.568;99.958;2022-12-18T01:40:35;14.82;;;6.75;;
74229;SDS011;62589;12.568;99.958;2022-12-18T01:43:01;17.35;;;7.03;;
74229;SDS011;62589;12.568;99.958;2022-12-18T01:45:28;16.73;;;7.55;;
74229;SDS011;62589;12.568;99.958;2022-12-18T01:47:57;16.73;;;7.65;;
74229;SDS011;62589;12.568;99.958;2022-12-18T01:50:30;15.77;;;7.13;;
74229;SDS011;62589;12.568;99.958;2022-12-18T01:53:07;16.60;;;7.05;;
74229;SDS011;62589;12.568;99.958;2022-12-18T01:55:43;14.18;;;7.40;;
74229;SDS011;62589;12.568;99.958;2022-12-18T01:58:14;20.08;;;7.15;;
74229;SDS011;62589;12.568;99.958;2022-12-18T02:00:41;15.27;;;7.55;;
74229;SDS011;62589;12.568;99.958;2022-12-18T02:03:08;23.38;;;7.25;;
74229;SDS011;62589;12.568;99.958;2022-12-18T02:05:45;13.80;;;6.97;;
74229;SDS011;62589;12.568;99.958;2022-12-18T02:08:41;18.98;;;8.70;;
74229;SDS011;62589;12.568;99.958;2022-12-18T02:11:26;17.08;;;7.57;;
74229;SDS011;62589;12.568;99.958;2022-12-18T02:14:14;20.95;;;8.52;;
74229;SDS011;62589;12.568;99.958;2022-12-18T02:17:01;18.17;;;7.55;;
74229;SDS011;62589;12.568;99.958;2022-12-18T02:28:19;26.85;;;7.45;;
74229;SDS011;62589;12.568;99.958;2022-12-18T02:30:49;16.08;;;7.13;;
74229;SDS011;62589;12.568;99.958;2022-12-18T02:33:19;21.80;;;7.80;;
74229;SDS011;62589;12.568;99.958;2022-12-18T02:35:50;15.98;;;7.63;;
74229;SDS011;62589;12.568;99.958;2022-12-18T02:38:20;13.82;;;7.55;;
74229;SDS011;62589;12.568;99.958;2022-12-18T02:40:47;14.98;;;7.35;;
74229;SDS011;62589;12.568;99.958;2022-12-18T02:43:15;14.20;;;6.63;;
74229;SDS011;62589;12.568;99.958;2022-12-18T02:45:55;18.30;;;7.95;;
74229;SDS011;62589;12.568;99.958;2022-12-18T02:48:24;18.60;;;6.85;;
74229;SDS011;62589;12.568;99.958;2022-12-18T02:51:02;14.13;;;6.43;;
74229;SDS011;62589;12.568;99.958;2022-12-18T02:56:20;15.13;;;7.25;;
74229;SDS011;62589;12.568;99.958;2022-12-18T02:59:00;13.93;;;6.90;;
74229;SDS011;62589;12.568;99.958;2022-12-18T03:01:33;13.45;;;7.57;;
74229;SDS011;62589;12.568;99.958;2022-12-18T03:04:26;16.42;;;7.43;;
74229;SDS011;62589;12.568;99.958;2022-12-18T03:07:06;17.00;;;7.43;;
74229;SDS011;62589;12.568;99.958;2022-12-18T03:09:38;11.93;;;6.53;;
74229;SDS011;62589;12.568;99.958;2022-12-18T03:12:11;16.73;;;7.03;;
74229;SDS011;62589;12.568;99.958;2022-12-18T03:17:46;15.55;;;7.50;;
74229;SDS011;62589;12.568;99.958;2022-12-18T03:20:17;16.02;;;7.43;;
74229;SDS011;62589;12.568;99.958;2022-12-18T03:22:48;11.50;;;6.30;;
74229;SDS011;62589;12.568;99.958;2022-12-18T03:25:19;17.20;;;7.32;;
74229;SDS011;62589;12.568;99.958;2022-12-18T03:27:48;13.45;;;6.88;;
74229;SDS011;62589;12.568;99.958;2022-12-18T03:30:17;9.35;;;6.07;;
74229;SDS011;62589;12.568;99.958;2022-12-18T03:32:52;16.27;;;7.00;;
74229;SDS011;62589;12.568;99.958;2022-12-18T03:35:26;13.25;;;7.38;;
74229;SDS011;62589;12.568;99.958;2022-12-18T03:37:57;13.20;;;6.85;;
74229;SDS011;62589;12.568;99.958;2022-12-18T03:40:29;15.85;;;7.10;;
74229;SDS011;62589;12.568;99.958;2022-12-18T03:43:11;17.02;;;7.50;;
74229;SDS011;62589;12.568;99.958;2022-12-18T03:48:59;12.65;;;7.15;;
74229;SDS011;62589;12.568;99.958;2022-12-18T03:51:37;14.13;;;7.38;;
74229;SDS011;62589;12.568;99.958;2022-12-18T03:54:25;10.10;;;6.95;;
74229;SDS011;62589;12.568;99.958;2022-12-18T03:56:56;15.52;;;7.78;;
74229;SDS011;62589;12.568;99.958;2022-12-18T03:59:26;16.77;;;6.97;;
74229;SDS011;62589;12.568;99.958;2022-12-18T04:01:55;11.05;;;6.50;;
74229;SDS011;62589;12.568;99.958;2022-12-18T04:04:24;17.23;;;7.15;;
74229;SDS011;62589;12.568;99.958;2022-12-18T04:06:53;17.05;;;7.15;;
74229;SDS011;62589;12.568;99.958;2022-12-18T04:09:20;14.60;;;7.07;;
74229;SDS011;62589;12.568;99.958;2022-12-18T04:11:47;14.57;;;7.85;;
74229;SDS011;62589;12.568;99.958;2022-12-18T04:14:13;16.73;;;7.13;;
74229;SDS011;62589;12.568;99.958;2022-12-18T04:16:40;14.48;;;7.40;;
74229;SDS011;62589;12.568;99.958;2022-12-18T04:19:06;10.38;;;6.38;;
74229;SDS011;62589;12.568;99.958;2022-12-18T04:21:33;11.25;;;6.47;;
74229;SDS011;62589;12.568;99.958;2022-12-18T04:23:59;13.75;;;7.30;;
74229;SDS011;62589;12.568;99.958;2022-12-18T04:26:25;8.38;;;6.35;;
74229;SDS011;62589;12.568;99.958;2022-12-18T04:28:52;14.88;;;6.25;;
74229;SDS011;62589;12.568;99.958;2022-12-18T04:31:18;13.45;;;6.90;;
74229;SDS011;62589;12.568;99.958;2022-12-18T04:33:45;9.52;;;6.82;;
74229;SDS011;62589;12.568;99.958;2022-12-18T04:36:11;10.68;;;6.90;;
74229;SDS011;62589;12.568;99.958;2022-12-18T04:38:37;11.73;;;6.80;;
74229;SDS011;62589;12.568;99.958;2022-12-18T04:41:04;12.90;;;6.50;;
74229;SDS011;62589;12.568;99.958;2022-12-18T04:43:30;12.30;;;6.72;;
74229;SDS011;62589;12.568;99.958;2022-12-18T04:46:02;20.35;;;6.95;;
74229;SDS011;62589;12.568;99.958;2022-12-18T04:48:29;9.82;;;6.68;;
74229;SDS011;62589;12.568;99.958;2022-12-18T04:50:56;13.00;;;7.05;;
74229;SDS011;62589;12.568;99.958;2022-12-18T04:53:22;13.38;;;6.75;;
74229;SDS011;62589;12.568;99.958;2022-12-18T04:55:49;10.45;;;6.53;;
74229;SDS011;62589;12.568;99.958;2022-12-18T04:58:15;13.18;;;6.40;;
74229;SDS011;62589;12.568;99.958;2022-12-18T05:00:43;9.73;;;6.68;;
74229;SDS011;62589;12.568;99.958;2022-12-18T05:03:09;15.60;;;7.28;;
74229;SDS011;62589;12.568;99.958;2022-12-18T05:05:35;10.88;;;6.90;;
74229;SDS011;62589;12.568;99.958;2022-12-18T05:08:02;13.05;;;6.90;;
74229;SDS011;62589;12.568;99.958;2022-12-18T05:10:28;10.60;;;6.53;;
74229;SDS011;62589;12.568;99.958;2022-12-18T05:12:55;10.50;;;7.18;;
74229;SDS011;62589;12.568;99.958;2022-12-18T05:15:31;8.13;;;6.43;;
74229;SDS011;62589;12.568;99.958;2022-12-18T05:17:58;12.13;;;7.25;;
74229;SDS011;62589;12.568;99.958;2022-12-18T05:20:25;11.07;;;6.68;;
74229;SDS011;62589;12.568;99.958;2022-12-18T05:22:52;10.20;;;6.40;;
74229;SDS011;62589;12.568;99.958;2022-12-18T05:25:19;11.45;;;6.85;;
74229;SDS011;62589;12.568;99.958;2022-12-18T05:27:47;9.73;;;7.00;;
74229;SDS011;62589;12.568;99.958;2022-12-18T05:30:14;11.75;;;6.60;;
74229;SDS011;62589;12.568;99.958;2022-12-18T05:32:41;12.13;;;6.35;;
74229;SDS011;62589;12.568;99.958;2022-12-18T05:35:09;11.32;;;7.05;;
74229;SDS011;62589;12.568;99.958;2022-12-18T05:37:36;12.15;;;6.72;;
74229;SDS011;62589;12.568;99.958;2022-12-18T05:40:03;14.45;;;6.60;;
74229;SDS011;62589;12.568;99.958;2022-12-18T05:42:30;13.13;;;6.45;;
74229;SDS011;62589;12.568;99.958;2022-12-18T05:44:57;15.80;;;7.47;;
74229;SDS011;62589;12.568;99.958;2022-12-18T05:47:23;11.70;;;6.75;;
74229;SDS011;62589;12.568;99.958;2022-12-18T05:49:49;11.10;;;7.07;;
74229;SDS011;62589;12.568;99.958;2022-12-18T05:52:16;13.65;;;7.28;;
74229;SDS011;62589;12.568;99.958;2022-12-18T05:54:42;11.77;;;6.82;;
74229;SDS011;62589;12.568;99.958;2022-12-18T05:57:09;11.98;;;6.78;;
74229;SDS011;62589;12.568;99.958;2022-12-18T05:59:35;12.23;;;7.30;;
74229;SDS011;62589;12.568;99.958;2022-12-18T06:02:02;12.82;;;6.63;;
74229;SDS011;62589;12.568;99.958;2022-12-18T06:04:28;10.90;;;6.93;;
74229;SDS011;62589;12.568;99.958;2022-12-18T06:06:58;11.88;;;7.05;;
74229;SDS011;62589;12.568;99.958;2022-12-18T06:09:24;13.35;;;7.30;;
74229;SDS011;62589;12.568;99.958;2022-12-18T06:11:51;12.20;;;7.03;;
74229;SDS011;62589;12.568;99.958;2022-12-18T06:14:17;13.88;;;6.80;;
74229;SDS011;62589;12.568;99.958;2022-12-18T06:16:44;15.35;;;7.10;;
74229;SDS011;62589;12.568;99.958;2022-12-18T06:19:13;9.98;;;7.03;;
74229;SDS011;62589;12.568;99.958;2022-12-18T06:21:41;10.20;;;7.03;;
74229;SDS011;62589;12.568;99.958;2022-12-18T06:24:07;10.43;;;7.13;;
74229;SDS011;62589;12.568;99.958;2022-12-18T06:26:34;16.38;;;7.47;;
74229;SDS011;62589;12.568;99.958;2022-12-18T06:29:04;14.00;;;6.55;;
74229;SDS011;62589;12.568;99.958;2022-12-18T06:31:31;12.02;;;7.20;;
74229;SDS011;62589;12.568;99.958;2022-12-18T06:33:58;10.52;;;6.53;;
74229;SDS011;62589;12.568;99.958;2022-12-18T06:36:25;10.75;;;6.55;;
74229;SDS011;62589;12.568;99.958;2022-12-18T06:38:55;10.05;;;6.50;;
74229;SDS011;62589;12.568;99.958;2022-12-18T06:41:22;15.50;;;7.22;;
74229;SDS011;62589;12.568;99.958;2022-12-18T06:43:49;11.60;;;6.80;;
74229;SDS011;62589;12.568;99.958;2022-12-18T06:46:15;11.10;;;7.13;;
74229;SDS011;62589;12.568;99.958;2022-12-18T06:48:42;11.20;;;7.00;;
74229;SDS011;62589;12.568;99.958;2022-12-18T06:51:08;11.90;;;7.93;;
74229;SDS011;62589;12.568;99.958;2022-12-18T06:53:35;10.55;;;6.80;;
74229;SDS011;62589;12.568;99.958;2022-12-18T06:56:02;11.30;;;7.20;;
74229;SDS011;62589;12.568;99.958;2022-12-18T06:58:30;12.95;;;7.40;;
74229;SDS011;62589;12.568;99.958;2022-12-18T07:01:00;14.63;;;7.40;;
74229;SDS011;62589;12.568;99.958;2022-12-18T07:03:27;10.88;;;7.25;;
74229;SDS011;62589;12.568;99.958;2022-12-18T07:05:54;11.15;;;7.25;;
74229;SDS011;62589;12.568;99.958;2022-12-18T07:08:20;11.05;;;7.47;;
74229;SDS011;62589;12.568;99.958;2022-12-18T07:10:47;13.27;;;8.02;;
74229;SDS011;62589;12.568;99.958;2022-12-18T07:13:15;15.15;;;8.32;;
74229;SDS011;62589;12.568;99.958;2022-12-18T07:15:42;12.07;;;7.50;;
74229;SDS011;62589;12.568;99.958;2022-12-18T07:18:09;14.13;;;7.93;;
74229;SDS011;62589;12.568;99.958;2022-12-18T07:20:36;14.52;;;7.88;;
74229;SDS011;62589;12.568;99.958;2022-12-18T07:23:03;9.50;;;6.93;;
74229;SDS011;62589;12.568;99.958;2022-12-18T07:25:33;10.65;;;7.60;;
74229;SDS011;62589;12.568;99.958;2022-12-18T07:28:01;15.25;;;8.23;;
74229;SDS011;62589;12.568;99.958;2022-12-18T07:30:27;13.32;;;7.13;;
74229;SDS011;62589;12.568;99.958;2022-12-18T07:32:54;12.70;;;8.43;;
74229;SDS011;62589;12.568;99.958;2022-12-18T07:35:20;13.63;;;8.10;;
74229;SDS011;62589;12.568;99.958;2022-12-18T07:37:46;16.45;;;8.07;;
74229;SDS011;62589;12.568;99.958;2022-12-18T07:40:13;11.85;;;7.30;;
74229;SDS011;62589;12.568;99.958;2022-12-18T07:42:39;13.93;;;7.88;;
74229;SDS011;62589;12.568;99.958;2022-12-18T07:45:06;12.73;;;7.90;;
74229;SDS011;62589;12.568;99.958;2022-12-18T07:47:35;15.48;;;8.70;;
74229;SDS011;62589;12.568;99.958;2022-12-18T07:50:02;14.10;;;8.02;;
74229;SDS011;62589;12.568;99.958;2022-12-18T07:52:30;13.13;;;8.43;;
74229;SDS011;62589;12.568;99.958;2022-12-18T07:54:56;13.02;;;8.40;;
74229;SDS011;62589;12.568;99.958;2022-12-18T07:57:23;10.93;;;8.00;;
74229;SDS011;62589;12.568;99.958;2022-12-18T07:59:49;15.02;;;8.13;;
74229;SDS011;62589;12.568;99.958;2022-12-18T08:02:15;16.42;;;9.50;;
74229;SDS011;62589;12.568;99.958;2022-12-18T08:04:42;17.27;;;8.63;;
74229;SDS011;62589;12.568;99.958;2022-12-18T08:07:08;15.23;;;9.02;;
74229;SDS011;62589;12.568;99.958;2022-12-18T08:09:34;13.40;;;8.40;;
74229;SDS011;62589;12.568;99.958;2022-12-18T08:12:01;12.68;;;8.70;;
74229;SDS011;62589;12.568;99.958;2022-12-18T08:14:27;14.38;;;8.85;;
74229;SDS011;62589;12.568;99.958;2022-12-18T08:16:54;15.63;;;8.98;;
74229;SDS011;62589;12.568;99.958;2022-12-18T08:19:20;14.10;;;9.93;;
74229;SDS011;62589;12.568;99.958;2022-12-18T08:21:47;15.20;;;9.25;;
74229;SDS011;62589;12.568;99.958;2022-12-18T08:24:13;21.23;;;8.93;;
74229;SDS011;62589;12.568;99.958;2022-12-18T08:26:39;14.38;;;9.32;;
74229;SDS011;62589;12.568;99.958;2022-12-18T08:29:06;13.50;;;9.73;;
74229;SDS011;62589;12.568;99.958;2022-12-18T08:31:32;14.77;;;8.65;;
74229;SDS011;62589;12.568;99.958;2022-12-18T08:33:59;17.38;;;9.82;;
74229;SDS011;62589;12.568;99.958;2022-12-18T08:36:25;15.93;;;9.68;;
74229;SDS011;62589;12.568;99.958;2022-12-18T08:38:52;19.60;;;9.35;;
74229;SDS011;62589;12.568;99.958;2022-12-18T08:41:19;19.90;;;9.90;;
74229;SDS011;62589;12.568;99.958;2022-12-18T08:43:45;14.18;;;9.85;;
74229;SDS011;62589;12.568;99.958;2022-12-18T08:46:24;18.15;;;10.10;;
74229;SDS011;62589;12.568;99.958;2022-12-18T08:48:53;14.25;;;8.98;;
74229;SDS011;62589;12.568;99.958;2022-12-18T08:51:21;15.45;;;9.43;;
74229;SDS011;62589;12.568;99.958;2022-12-18T08:53:47;18.55;;;8.85;;
74229;SDS011;62589;12.568;99.958;2022-12-18T08:56:14;13.45;;;8.98;;
74229;SDS011;62589;12.568;99.958;2022-12-18T08:58:42;14.48;;;9.73;;
74229;SDS011;62589;12.568;99.958;2022-12-18T09:01:09;15.52;;;9.07;;
74229;SDS011;62589;12.568;99.958;2022-12-18T09:03:37;16.17;;;9.90;;
74229;SDS011;62589;12.568;99.958;2022-12-18T09:06:04;14.80;;;8.55;;
74229;SDS011;62589;12.568;99.958;2022-12-18T09:08:31;23.33;;;9.55;;
74229;SDS011;62589;12.568;99.958;2022-12-18T09:11:01;16.77;;;9.88;;
74229;SDS011;62589;12.568;99.958;2022-12-18T09:13:28;16.48;;;9.20;;
74229;SDS011;62589;12.568;99.958;2022-12-18T09:15:54;15.35;;;9.63;;
74229;SDS011;62589;12.568;99.958;2022-12-18T09:18:21;16.50;;;8.95;;
74229;SDS011;62589;12.568;99.958;2022-12-18T09:20:49;18.05;;;10.52;;
74229;SDS011;62589;12.568;99.958;2022-12-18T09:23:17;16.67;;;10.23;;
74229;SDS011;62589;12.568;99.958;2022-12-18T09:25:44;14.80;;;9.25;;
74229;SDS011;62589;12.568;99.958;2022-12-18T09:28:15;19.42;;;9.88;;
74229;SDS011;62589;12.568;99.958;2022-12-18T09:30:44;16.50;;;9.23;;
74229;SDS011;62589;12.568;99.958;2022-12-18T09:33:12;18.20;;;9.55;;
74229;SDS011;62589;12.568;99.958;2022-12-18T09:35:39;21.80;;;9.32;;
74229;SDS011;62589;12.568;99.958;2022-12-18T09:38:08;16.42;;;9.25;;
74229;SDS011;62589;12.568;99.958;2022-12-18T09:40:42;20.90;;;9.48;;
74229;SDS011;62589;12.568;99.958;2022-12-18T09:43:16;19.17;;;9.52;;
74229;SDS011;62589;12.568;99.958;2022-12-18T09:45:52;18.05;;;9.68;;
74229;SDS011;62589;12.568;99.958;2022-12-18T09:48:30;18.58;;;9.30;;
74229;SDS011;62589;12.568;99.958;2022-12-18T09:51:12;15.43;;;8.80;;
74229;SDS011;62589;12.568;99.958;2022-12-18T09:53:44;14.90;;;9.27;;
74229;SDS011;62589;12.568;99.958;2022-12-18T09:56:18;15.32;;;9.55;;
74229;SDS011;62589;12.568;99.958;2022-12-18T09:58:53;16.67;;;9.05;;
74229;SDS011;62589;12.568;99.958;2022-12-18T10:01:24;18.38;;;9.57;;
74229;SDS011;62589;12.568;99.958;2022-12-18T10:03:52;17.42;;;9.50;;
74229;SDS011;62589;12.568;99.958;2022-12-18T10:06:39;16.02;;;10.20;;
74229;SDS011;62589;12.568;99.958;2022-12-18T10:09:32;15.60;;;9.75;;
74229;SDS011;62589;12.568;99.958;2022-12-18T10:12:17;17.33;;;10.20;;
74229;SDS011;62589;12.568;99.958;2022-12-18T10:20:57;18.92;;;9.63;;
74229;SDS011;62589;12.568;99.958;2022-12-18T10:23:32;19.98;;;11.35;;
74229;SDS011;62589;12.568;99.958;2022-12-18T10:26:07;17.20;;;11.07;;
74229;SDS011;62589;12.568;99.958;2022-12-18T10:28:39;19.70;;;11.07;;
74229;SDS011;62589;12.568;99.958;2022-12-18T10:31:07;19.10;;;12.52;;
74229;SDS011;62589;12.568;99.958;2022-12-18T10:33:49;25.75;;;13.40;;
74229;SDS011;62589;12.568;99.958;2022-12-18T10:36:16;24.60;;;13.20;;
74229;SDS011;62589;12.568;99.958;2022-12-18T10:38:42;18.67;;;12.23;;
74229;SDS011;62589;12.568;99.958;2022-12-18T10:46:41;25.42;;;11.20;;
74229;SDS011;62589;12.568;99.958;2022-12-18T10:49:18;16.50;;;9.77;;
74229;SDS011;62589;12.568;99.958;2022-12-18T10:51:46;17.13;;;10.80;;
74229;SDS011;62589;12.568;99.958;2022-12-18T10:54:14;16.77;;;10.27;;
74229;SDS011;62589;12.568;99.958;2022-12-18T10:56:47;18.98;;;10.70;;
74229;SDS011;62589;12.568;99.958;2022-12-18T10:59:15;18.17;;;10.95;;
74229;SDS011;62589;12.568;99.958;2022-12-18T11:04:50;17.08;;;10.48;;
74229;SDS011;62589;12.568;99.958;2022-12-18T11:07:17;16.83;;;11.05;;
74229;SDS011;62589;12.568;99.958;2022-12-18T11:09:44;16.23;;;10.40;;
74229;SDS011;62589;12.568;99.958;2022-12-18T11:12:29;20.17;;;10.20;;
74229;SDS011;62589;12.568;99.958;2022-12-18T11:14:56;15.60;;;10.30;;
74229;SDS011;62589;12.568;99.958;2022-12-18T11:17:27;13.65;;;9.88;;
74229;SDS011;62589;12.568;99.958;2022-12-18T11:20:05;18.55;;;10.35;;
74229;SDS011;62589;12.568;99.958;2022-12-18T11:22:56;16.75;;;9.40;;
74229;SDS011;62589;12.568;99.958;2022-12-18T11:25:24;16.67;;;10.10;;
74229;SDS011;62589;12.568;99.958;2022-12-18T11:27:55;15.35;;;9.80;;
74229;SDS011;62589;12.568;99.958;2022-12-18T11:30:25;19.02;;;10.45;;
74229;SDS011;62589;12.568;99.958;2022-12-18T11:32:59;21.13;;;10.07;;
74229;SDS011;62589;12.568;99.958;2022-12-18T11:35:52;16.60;;;10.20;;
74229;SDS011;62589;12.568;99.958;2022-12-18T11:38:28;18.77;;;10.30;;
74229;SDS011;62589;12.568;99.958;2022-12-18T11:44:15;15.35;;;9.57;;
74229;SDS011;62589;12.568;99.958;2022-12-18T11:46:51;17.20;;;9.73;;
74229;SDS011;62589;12.568;99.958;2022-12-18T11:49:34;17.23;;;9.90;;
74229;SDS011;62589;12.568;99.958;2022-12-18T11:52:03;18.58;;;10.15;;
74229;SDS011;62589;12.568;99.958;2022-12-18T11:54:41;18.15;;;10.20;;
74229;SDS011;62589;12.568;99.958;2022-12-18T11:57:16;18.52;;;10.35;;
74229;SDS011;62589;12.568;99.958;2022-12-18T11:59:55;19.77;;;10.90;;
74229;SDS011;62589;12.568;99.958;2022-12-18T12:05:54;21.05;;;13.23;;
74229;SDS011;62589;12.568;99.958;2022-12-18T12:11:31;20.63;;;12.15;;
74229;SDS011;62589;12.568;99.958;2022-12-18T12:14:18;17.20;;;10.93;;
74229;SDS011;62589;12.568;99.958;2022-12-18T12:20:02;23.40;;;11.57;;
74229;SDS011;62589;12.568;99.958;2022-12-18T12:22:57;23.00;;;12.02;;
74229;SDS011;62589;12.568;99.958;2022-12-18T12:28:48;20.25;;;11.38;;
74229;SDS011;62589;12.568;99.958;2022-12-18T12:31:31;24.10;;;12.15;;
74229;SDS011;62589;12.568;99.958;2022-12-18T12:34:26;19.80;;;11.82;;
74229;SDS011;62589;12.568;99.958;2022-12-18T12:40:15;27.55;;;13.10;;
74229;SDS011;62589;12.568;99.958;2022-12-18T12:42:49;27.33;;;13.48;;
74229;SDS011;62589;12.568;99.958;2022-12-18T12:45:36;18.50;;;13.10;;
74229;SDS011;62589;12.568;99.958;2022-12-18T12:53:54;24.25;;;13.93;;
74229;SDS011;62589;12.568;99.958;2022-12-18T12:56:24;24.02;;;15.45;;
74229;SDS011;62589;12.568;99.958;2022-12-18T13:01:53;29.48;;;15.85;;
74229;SDS011;62589;12.568;99.958;2022-12-18T13:07:39;28.23;;;16.73;;
74229;SDS011;62589;12.568;99.958;2022-12-18T13:15:46;26.95;;;16.67;;
74229;SDS011;62589;12.568;99.958;2022-12-18T13:18:15;24.88;;;15.73;;
74229;SDS011;62589;12.568;99.958;2022-12-18T13:23:45;29.50;;;15.98;;
74229;SDS011;62589;12.568;99.958;2022-12-18T13:29:00;25.33;;;15.35;;
74229;SDS011;62589;12.568;99.958;2022-12-18T13:34:33;30.40;;;15.13;;
74229;SDS011;62589;12.568;99.958;2022-12-18T13:39:49;22.63;;;14.77;;
74229;SDS011;62589;12.568;99.958;2022-12-18T13:48:14;31.63;;;14.82;;
74229;SDS011;62589;12.568;99.958;2022-12-18T13:50:42;22.65;;;14.60;;
74229;SDS011;62589;12.568;99.958;2022-12-18T13:53:18;24.83;;;14.23;;
74229;SDS011;62589;12.568;99.958;2022-12-18T13:55:49;25.60;;;14.18;;
74229;SDS011;62589;12.568;99.958;2022-12-18T13:58:16;26.67;;;14.90;;
74229;SDS011;62589;12.568;99.958;2022-12-18T14:00:43;30.10;;;15.07;;
74229;SDS011;62589;12.568;99.958;2022-12-18T14:03:20;22.90;;;14.43;;
74229;SDS011;62589;12.568;99.958;2022-12-18T14:05:53;27.50;;;14.70;;
74229;SDS011;62589;12.568;99.958;2022-12-18T14:08:30;25.48;;;14.27;;
74229;SDS011;62589;12.568;99.958;2022-12-18T14:11:01;28.48;;;15.68;;
74229;SDS011;62589;12.568;99.958;2022-12-18T14:13:36;26.08;;;15.05;;
74229;SDS011;62589;12.568;99.958;2022-12-18T14:16:11;25.85;;;15.55;;
74229;SDS011;62589;12.568;99.958;2022-12-18T14:18:56;29.27;;;14.93;;
74229;SDS011;62589;12.568;99.958;2022-12-18T14:21:27;25.73;;;15.55;;
74229;SDS011;62589;12.568;99.958;2022-12-18T14:26:47;31.67;;;15.95;;
74229;SDS011;62589;12.568;99.958;2022-12-18T14:32:05;31.00;;;14.93;;
74229;SDS011;62589;12.568;99.958;2022-12-18T14:34:43;29.67;;;15.50;;
74229;SDS011;62589;12.568;99.958;2022-12-18T14:37:15;21.92;;;14.30;;
74229;SDS011;62589;12.568;99.958;2022-12-18T14:42:32;23.83;;;13.85;;
74229;SDS011;62589;12.568;99.958;2022-12-18T14:47:56;25.98;;;15.20;;
74229;SDS011;62589;12.568;99.958;2022-12-18T14:50:23;22.40;;;14.40;;
74229;SDS011;62589;12.568;99.958;2022-12-18T14:52:50;26.80;;;14.35;;
74229;SDS011;62589;12.568;99.958;2022-12-18T14:55:16;26.65;;;14.07;;
74229;SDS011;62589;12.568;99.958;2022-12-18T14:57:45;24.20;;;15.20;;
74229;SDS011;62589;12.568;99.958;2022-12-18T15:00:19;24.30;;;13.90;;
74229;SDS011;62589;12.568;99.958;2022-12-18T15:02:50;23.00;;;12.10;;
74229;SDS011;62589;12.568;99.958;2022-12-18T15:05:21;22.95;;;12.90;;
74229;SDS011;62589;12.568;99.958;2022-12-18T15:07:55;27.00;;;13.75;;
74229;SDS011;62589;12.568;99.958;2022-12-18T15:10:27;26.80;;;12.75;;
74229;SDS011;62589;12.568;99.958;2022-12-18T15:15:47;23.85;;;13.38;;
74229;SDS011;62589;12.568;99.958;2022-12-18T15:18:15;29.00;;;14.20;;
74229;SDS011;62589;12.568;99.958;2022-12-18T15:20:46;24.85;;;13.15;;
74229;SDS011;62589;12.568;99.958;2022-12-18T15:23:24;19.73;;;13.23;;
74229;SDS011;62589;12.568;99.958;2022-12-18T15:26:04;26.15;;;14.18;;
74229;SDS011;62589;12.568;99.958;2022-12-18T15:28:48;21.52;;;12.27;;
74229;SDS011;62589;12.568;99.958;2022-12-18T15:34:02;22.92;;;14.02;;
74229;SDS011;62589;12.568;99.958;2022-12-18T15:36:40;26.25;;;13.77;;
74229;SDS011;62589;12.568;99.958;2022-12-18T15:39:06;20.52;;;13.07;;
74229;SDS011;62589;12.568;99.958;2022-12-18T15:41:36;23.45;;;14.18;;
74229;SDS011;62589;12.568;99.958;2022-12-18T15:44:03;24.75;;;13.63;;
74229;SDS011;62589;12.568;99.958;2022-12-18T15:46:49;25.17;;;13.45;;
74229;SDS011;62589;12.568;99.958;2022-12-18T15:49:15;22.00;;;13.68;;
74229;SDS011;62589;12.568;99.958;2022-12-18T15:51:41;25.40;;;14.00;;
74229;SDS011;62589;12.568;99.958;2022-12-18T15:54:13;24.75;;;13.60;;
74229;SDS011;62589;12.568;99.958;2022-12-18T15:57:00;23.40;;;13.05;;
74229;SDS011;62589;12.568;99.958;2022-12-18T15:59:38;23.30;;;13.50;;
74229;SDS011;62589;12.568;99.958;2022-12-18T16:02:07;23.02;;;12.95;;
74229;SDS011;62589;12.568;99.958;2022-12-18T16:04:42;22.35;;;13.18;;
74229;SDS011;62589;12.568;99.958;2022-12-18T16:07:09;22.55;;;12.63;;
74229;SDS011;62589;12.568;99.958;2022-12-18T16:09:36;23.13;;;14.02;;
74229;SDS011;62589;12.568;99.958;2022-12-18T16:12:02;25.13;;;14.27;;
74229;SDS011;62589;12.568;99.958;2022-12-18T16:14:29;27.42;;;13.35;;
74229;SDS011;62589;12.568;99.958;2022-12-18T16:17:00;27.13;;;13.93;;
74229;SDS011;62589;12.568;99.958;2022-12-18T16:19:29;22.38;;;14.18;;
74229;SDS011;62589;12.568;99.958;2022-12-18T16:21:56;22.38;;;12.88;;